sensor_id;sensor_type;location;lat;lon;timestamp;pressure;altitude;pressure_sealevel;temperature;humidity
16544;BME280;8384;47.996;7.786;2023-03-26T00:01:01;98412.56;;;9.35;70.71
16544;BME280;8384;47.996;7.786;2023-03-26T00:03:30;98410.69;;;9.36;69.72
16544;BME280;8384;47.996;7.786;2023-03-26T00:06:08;98395.84;;;9.21;70.27
16544;BME280;8384;47.996;7.786;2023-03-26T00:08:34;98400.84;;;9.35;69.62
16544;BME280;8384;47.996;7.786;2023-03-26T00:11:01;98399.50;;;9.37;69.22
16544;BME280;8384;47.996;7.786;2023-03-26T00:13:27;98384.34;;;9.19;68.97
16544;BME280;8384;47.996;7.786;2023-03-26T00:15:52;98395.44;;;9.40;68.22
16544;BME280;8384;47.996;7.786;2023-03-26T00:18:18;98387.25;;;9.40;68.10
16544;BME280;8384;47.996;7.786;2023-03-26T00:20:54;98389.91;;;9.29;67.99
16544;BME280;8384;47.996;7.786;2023-03-26T00:23:19;98411.75;;;9.35;68.56
16544;BME280;8384;47.996;7.786;2023-03-26T00:25:44;98371.78;;;9.13;68.38
16544;BME280;8384;47.996;7.786;2023-03-26T00:28:17;98395.97;;;9.37;68.04
16544;BME280;8384;47.996;7.786;2023-03-26T00:30:45;98350.56;;;9.20;67.23
16544;BME280;8384;47.996;7.786;2023-03-26T00:33:11;98395.81;;;9.59;66.94
16544;BME280;8384;47.996;7.786;2023-03-26T00:35:39;98379.41;;;9.49;66.57
16544;BME280;8384;47.996;7.786;2023-03-26T00:38:04;98359.00;;;9.19;66.80
16544;BME280;8384;47.996;7.786;2023-03-26T00:40:29;98390.56;;;9.47;66.48
16544;BME280;8384;47.996;7.786;2023-03-26T00:42:56;98389.22;;;9.55;65.98
16544;BME280;8384;47.996;7.786;2023-03-26T00:45:21;98365.97;;;9.42;64.84
16544;BME280;8384;47.996;7.786;2023-03-26T00:47:47;98389.19;;;9.44;65.60
16544;BME280;8384;47.996;7.786;2023-03-26T00:50:12;98389.22;;;9.50;65.17
16544;BME280;8384;47.996;7.786;2023-03-26T00:52:43;98393.97;;;9.65;64.79
16544;BME280;8384;47.996;7.786;2023-03-26T00:55:11;98388.09;;;9.45;64.50
16544;BME280;8384;47.996;7.786;2023-03-26T00:57:36;98389.22;;;9.55;64.08
16544;BME280;8384;47.996;7.786;2023-03-26T01:00:08;98382.13;;;9.54;64.15
16544;BME280;8384;47.996;7.786;2023-03-26T01:02:35;98348.72;;;9.31;63.98
16544;BME280;8384;47.996;7.786;2023-03-26T01:08:00;98370.13;;;9.55;63.06
16544;BME280;8384;47.996;7.786;2023-03-26T01:10:28;98358.94;;;9.51;62.46
16544;BME280;8384;47.996;7.786;2023-03-26T01:12:54;98364.16;;;9.53;62.37
16544;BME280;8384;47.996;7.786;2023-03-26T01:15:20;98328.53;;;9.27;62.15
16544;BME280;8384;47.996;7.786;2023-03-26T01:17:46;98357.84;;;9.52;61.38
16544;BME280;8384;47.996;7.786;2023-03-26T01:20:19;98343.69;;;9.55;61.86
16544;BME280;8384;47.996;7.786;2023-03-26T01:22:51;98339.03;;;9.51;61.23
16544;BME280;8384;47.996;7.786;2023-03-26T01:25:22;98323.22;;;9.53;60.93
16544;BME280;8384;47.996;7.786;2023-03-26T01:27:51;98317.16;;;9.45;61.70
16544;BME280;8384;47.996;7.786;2023-03-26T01:32:58;98295.59;;;9.39;61.53
16544;BME280;8384;47.996;7.786;2023-03-26T01:35:52;98287.78;;;9.63;61.08
16544;BME280;8384;47.996;7.786;2023-03-26T01:38:26;98275.94;;;9.42;61.67
16544;BME280;8384;47.996;7.786;2023-03-26T01:41:13;98276.63;;;9.70;60.76
16544;BME280;8384;47.996;7.786;2023-03-26T01:46:22;98254.47;;;9.61;60.99
16544;BME280;8384;47.996;7.786;2023-03-26T01:48:48;98225.25;;;9.51;60.59
16544;BME280;8384;47.996;7.786;2023-03-26T01:51:25;98248.50;;;9.64;60.41
16544;BME280;8384;47.996;7.786;2023-03-26T01:53:51;98229.22;;;9.28;61.57
16544;BME280;8384;47.996;7.786;2023-03-26T01:56:22;98224.94;;;9.37;60.72
16544;BME280;8384;47.996;7.786;2023-03-26T01:59:00;98212.09;;;9.33;61.22
16544;BME280;8384;47.996;7.786;2023-03-26T02:01:42;98218.41;;;9.43;60.99
16544;BME280;8384;47.996;7.786;2023-03-26T02:04:23;98219.78;;;9.51;60.39
16544;BME280;8384;47.996;7.786;2023-03-26T02:06:56;98191.34;;;9.26;60.76
16544;BME280;8384;47.996;7.786;2023-03-26T02:09:28;98196.78;;;9.26;60.61
16544;BME280;8384;47.996;7.786;2023-03-26T02:11:55;98200.97;;;9.50;60.92
16544;BME280;8384;47.996;7.786;2023-03-26T02:14:21;98200.97;;;9.44;61.02
16544;BME280;8384;47.996;7.786;2023-03-26T02:16:47;98200.66;;;9.36;61.38
16544;BME280;8384;47.996;7.786;2023-03-26T02:19:13;98187.63;;;9.53;59.77
16544;BME280;8384;47.996;7.786;2023-03-26T02:21:46;98187.06;;;9.51;60.25
16544;BME280;8384;47.996;7.786;2023-03-26T02:24:15;98182.88;;;9.28;60.32
16544;BME280;8384;47.996;7.786;2023-03-26T02:26:40;98165.19;;;9.41;60.13
16544;BME280;8384;47.996;7.786;2023-03-26T02:29:05;98158.59;;;9.26;60.19
16544;BME280;8384;47.996;7.786;2023-03-26T02:31:31;98119.88;;;9.24;60.46
16544;BME280;8384;47.996;7.786;2023-03-26T02:33:56;98159.25;;;9.54;59.70
16544;BME280;8384;47.996;7.786;2023-03-26T02:36:22;98157.09;;;9.62;59.66
16544;BME280;8384;47.996;7.786;2023-03-26T02:38:55;98148.06;;;9.51;58.76
16544;BME280;8384;47.996;7.786;2023-03-26T02:41:22;98151.28;;;9.37;60.04
16544;BME280;8384;47.996;7.786;2023-03-26T02:43:47;98134.09;;;9.42;59.57
16544;BME280;8384;47.996;7.786;2023-03-26T02:46:12;98122.34;;;9.21;59.93
16544;BME280;8384;47.996;7.786;2023-03-26T02:48:38;98134.09;;;9.32;60.09
16544;BME280;8384;47.996;7.786;2023-03-26T02:51:05;98130.00;;;9.34;59.07
16544;BME280;8384;47.996;7.786;2023-03-26T02:53:31;98130.06;;;9.50;58.38
16544;BME280;8384;47.996;7.786;2023-03-26T02:55:57;98129.47;;;9.42;58.15
16544;BME280;8384;47.996;7.786;2023-03-26T02:58:23;98128.41;;;9.54;58.96
16544;BME280;8384;47.996;7.786;2023-03-26T03:00:50;98109.00;;;9.29;58.41
16544;BME280;8384;47.996;7.786;2023-03-26T03:03:20;98114.44;;;9.24;59.83
16544;BME280;8384;47.996;7.786;2023-03-26T03:05:49;98111.19;;;9.43;58.44
16544;BME280;8384;47.996;7.786;2023-03-26T03:08:14;98107.41;;;9.59;58.12
16544;BME280;8384;47.996;7.786;2023-03-26T03:10:42;98094.56;;;9.44;58.28
16544;BME280;8384;47.996;7.786;2023-03-26T03:13:07;98103.81;;;9.33;58.64
16544;BME280;8384;47.996;7.786;2023-03-26T03:15:33;98071.09;;;9.38;58.34
16544;BME280;8384;47.996;7.786;2023-03-26T03:17:59;98073.84;;;9.64;58.23
16544;BME280;8384;47.996;7.786;2023-03-26T03:20:24;98051.75;;;9.76;58.16
16544;BME280;8384;47.996;7.786;2023-03-26T03:22:49;98028.28;;;9.85;57.75
16544;BME280;8384;47.996;7.786;2023-03-26T03:25:15;98053.94;;;9.69;58.88
16544;BME280;8384;47.996;7.786;2023-03-26T03:27:42;98045.19;;;9.36;60.20
16544;BME280;8384;47.996;7.786;2023-03-26T03:30:08;98038.66;;;9.52;60.08
16544;BME280;8384;47.996;7.786;2023-03-26T03:32:35;98003.72;;;9.28;60.25
16544;BME280;8384;47.996;7.786;2023-03-26T03:35:00;98040.56;;;9.52;60.38
16544;BME280;8384;47.996;7.786;2023-03-26T03:37:25;98041.63;;;9.40;61.17
16544;BME280;8384;47.996;7.786;2023-03-26T03:39:51;98033.69;;;9.13;62.35
16544;BME280;8384;47.996;7.786;2023-03-26T03:42:16;98017.91;;;9.51;61.04
16544;BME280;8384;47.996;7.786;2023-03-26T03:44:41;98014.09;;;9.42;61.35
16544;BME280;8384;47.996;7.786;2023-03-26T03:47:06;98022.00;;;9.38;61.58
16544;BME280;8384;47.996;7.786;2023-03-26T03:49:34;97999.09;;;9.44;61.09
16544;BME280;8384;47.996;7.786;2023-03-26T03:51:59;98017.66;;;9.53;61.17
16544;BME280;8384;47.996;7.786;2023-03-26T03:54:25;98005.66;;;9.43;61.97
16544;BME280;8384;47.996;7.786;2023-03-26T03:56:52;98008.91;;;9.61;62.01
16544;BME280;8384;47.996;7.786;2023-03-26T03:59:18;97998.53;;;9.68;61.36
16544;BME280;8384;47.996;7.786;2023-03-26T04:01:43;98001.00;;;9.80;61.46
16544;BME280;8384;47.996;7.786;2023-03-26T04:04:10;97987.34;;;9.75;61.34
16544;BME280;8384;47.996;7.786;2023-03-26T04:06:36;97984.06;;;9.73;61.64
16544;BME280;8384;47.996;7.786;2023-03-26T04:09:01;97973.19;;;9.63;62.37
16544;BME280;8384;47.996;7.786;2023-03-26T04:11:26;97971.50;;;9.67;62.79
16544;BME280;8384;47.996;7.786;2023-03-26T04:13:51;97940.16;;;9.59;63.08
16544;BME280;8384;47.996;7.786;2023-03-26T04:16:17;97964.97;;;9.68;63.11
16544;BME280;8384;47.996;7.786;2023-03-26T04:18:42;97960.88;;;9.70;63.25
16544;BME280;8384;47.996;7.786;2023-03-26T04:21:09;97942.34;;;9.36;63.81
16544;BME280;8384;47.996;7.786;2023-03-26T04:23:37;97952.19;;;9.53;63.48
16544;BME280;8384;47.996;7.786;2023-03-26T04:26:04;97910.38;;;9.73;61.36
16544;BME280;8384;47.996;7.786;2023-03-26T04:28:41;97937.09;;;9.92;61.16
16544;BME280;8384;47.996;7.786;2023-03-26T04:31:12;97936.53;;;9.95;60.75
16544;BME280;8384;47.996;7.786;2023-03-26T04:33:40;97938.22;;;9.90;60.97
16544;BME280;8384;47.996;7.786;2023-03-26T04:36:10;97900.91;;;9.50;61.56
16544;BME280;8384;47.996;7.786;2023-03-26T04:38:44;97915.63;;;9.43;62.71
16544;BME280;8384;47.996;7.786;2023-03-26T04:41:13;97895.94;;;9.62;62.43
16544;BME280;8384;47.996;7.786;2023-03-26T04:43:39;97902.72;;;9.90;60.55
16544;BME280;8384;47.996;7.786;2023-03-26T04:46:14;97895.91;;;9.83;62.09
16544;BME280;8384;47.996;7.786;2023-03-26T04:48:42;97873.00;;;9.73;62.63
16544;BME280;8384;47.996;7.786;2023-03-26T04:51:08;97885.50;;;9.90;61.70
16544;BME280;8384;47.996;7.786;2023-03-26T04:53:46;97885.56;;;9.80;62.34
16544;BME280;8384;47.996;7.786;2023-03-26T04:56:46;97887.38;;;10.05;60.79
16544;BME280;8384;47.996;7.786;2023-03-26T04:59:23;97884.94;;;10.03;61.45
16544;BME280;8384;47.996;7.786;2023-03-26T05:01:53;97877.56;;;9.94;61.76
16544;BME280;8384;47.996;7.786;2023-03-26T05:04:18;97877.78;;;10.08;62.06
16544;BME280;8384;47.996;7.786;2023-03-26T05:06:43;97851.16;;;9.79;62.62
16544;BME280;8384;47.996;7.786;2023-03-26T05:09:09;97863.44;;;9.76;63.05
16544;BME280;8384;47.996;7.786;2023-03-26T05:11:36;97875.13;;;9.87;64.06
16544;BME280;8384;47.996;7.786;2023-03-26T05:14:01;97875.66;;;9.99;63.22
16544;BME280;8384;47.996;7.786;2023-03-26T05:16:27;97871.88;;;9.85;65.00
16544;BME280;8384;47.996;7.786;2023-03-26T05:18:53;97848.69;;;9.77;64.77
16544;BME280;8384;47.996;7.786;2023-03-26T05:21:18;97867.81;;;9.77;67.27
16544;BME280;8384;47.996;7.786;2023-03-26T05:23:44;97846.59;;;9.58;68.95
16544;BME280;8384;47.996;7.786;2023-03-26T05:26:09;97835.19;;;9.36;69.25
16544;BME280;8384;47.996;7.786;2023-03-26T05:28:35;97857.75;;;9.67;69.53
16544;BME280;8384;47.996;7.786;2023-03-26T05:31:00;97844.06;;;9.78;68.16
16544;BME280;8384;47.996;7.786;2023-03-26T05:33:27;97858.00;;;9.71;68.42
16544;BME280;8384;47.996;7.786;2023-03-26T05:36:04;97840.59;;;9.51;69.08
16544;BME280;8384;47.996;7.786;2023-03-26T05:38:30;97833.25;;;9.47;70.49
16544;BME280;8384;47.996;7.786;2023-03-26T05:41:00;97822.03;;;9.48;70.19
16544;BME280;8384;47.996;7.786;2023-03-26T05:43:27;97789.31;;;9.48;71.21
16544;BME280;8384;47.996;7.786;2023-03-26T05:45:52;97767.94;;;9.71;71.88
16544;BME280;8384;47.996;7.786;2023-03-26T05:48:18;97769.13;;;9.54;72.32
16544;BME280;8384;47.996;7.786;2023-03-26T05:50:47;97777.75;;;9.77;72.98
16544;BME280;8384;47.996;7.786;2023-03-26T05:53:12;97768.81;;;9.61;73.46
16544;BME280;8384;47.996;7.786;2023-03-26T05:55:37;97747.38;;;9.28;72.85
16544;BME280;8384;47.996;7.786;2023-03-26T05:58:04;97774.66;;;9.23;74.78
16544;BME280;8384;47.996;7.786;2023-03-26T06:00:30;97758.53;;;9.37;74.71
16544;BME280;8384;47.996;7.786;2023-03-26T06:02:55;97741.41;;;9.16;75.08
16544;BME280;8384;47.996;7.786;2023-03-26T06:05:21;97734.84;;;9.22;75.03
16544;BME280;8384;47.996;7.786;2023-03-26T06:07:46;97742.13;;;9.48;74.68
16544;BME280;8384;47.996;7.786;2023-03-26T06:10:11;97713.50;;;9.45;73.73
16544;BME280;8384;47.996;7.786;2023-03-26T06:12:37;97711.84;;;9.44;75.70
16544;BME280;8384;47.996;7.786;2023-03-26T06:15:03;97724.06;;;9.62;75.01
16544;BME280;8384;47.996;7.786;2023-03-26T06:17:28;97720.47;;;9.72;74.24
16544;BME280;8384;47.996;7.786;2023-03-26T06:19:53;97725.22;;;9.51;74.49
16544;BME280;8384;47.996;7.786;2023-03-26T06:22:19;97711.97;;;9.18;76.68
16544;BME280;8384;47.996;7.786;2023-03-26T06:24:44;97721.44;;;9.36;75.57
16544;BME280;8384;47.996;7.786;2023-03-26T06:27:10;97724.47;;;9.35;75.87
16544;BME280;8384;47.996;7.786;2023-03-26T06:29:35;97712.19;;;9.32;75.47
16544;BME280;8384;47.996;7.786;2023-03-26T06:32:00;97700.38;;;9.52;75.50
16544;BME280;8384;47.996;7.786;2023-03-26T06:34:26;97713.69;;;9.64;75.96
16544;BME280;8384;47.996;7.786;2023-03-26T06:36:52;97718.88;;;9.66;76.19
16544;BME280;8384;47.996;7.786;2023-03-26T06:39:18;97699.28;;;9.53;76.04
16544;BME280;8384;47.996;7.786;2023-03-26T06:41:44;97709.84;;;9.70;76.14
16544;BME280;8384;47.996;7.786;2023-03-26T06:44:09;97690.53;;;9.56;76.71
16544;BME280;8384;47.996;7.786;2023-03-26T06:46:35;97714.34;;;9.35;76.04
16544;BME280;8384;47.996;7.786;2023-03-26T06:49:00;97714.41;;;9.25;78.29
16544;BME280;8384;47.996;7.786;2023-03-26T06:51:26;97688.44;;;9.38;78.02
16544;BME280;8384;47.996;7.786;2023-03-26T06:53:51;97710.44;;;9.57;75.15
16544;BME280;8384;47.996;7.786;2023-03-26T06:56:16;97706.16;;;9.40;77.58
16544;BME280;8384;47.996;7.786;2023-03-26T06:58:42;97670.72;;;9.30;77.51
16544;BME280;8384;47.996;7.786;2023-03-26T07:01:07;97684.13;;;9.26;77.85
16544;BME280;8384;47.996;7.786;2023-03-26T07:03:33;97694.72;;;9.38;78.92
16544;BME280;8384;47.996;7.786;2023-03-26T07:05:58;97675.97;;;9.21;80.11
16544;BME280;8384;47.996;7.786;2023-03-26T07:08:23;97677.25;;;9.34;79.88
16544;BME280;8384;47.996;7.786;2023-03-26T07:10:48;97658.53;;;9.17;79.81
16544;BME280;8384;47.996;7.786;2023-03-26T07:13:14;97695.03;;;9.32;79.85
16544;BME280;8384;47.996;7.786;2023-03-26T07:15:40;97671.81;;;9.34;79.60
16544;BME280;8384;47.996;7.786;2023-03-26T07:18:06;97674.19;;;9.51;78.71
16544;BME280;8384;47.996;7.786;2023-03-26T07:20:31;97653.53;;;9.40;79.76
16544;BME280;8384;47.996;7.786;2023-03-26T07:22:57;97685.09;;;9.51;79.63
16544;BME280;8384;47.996;7.786;2023-03-26T07:25:22;97665.97;;;9.62;78.50
16544;BME280;8384;47.996;7.786;2023-03-26T07:30:31;97672.41;;;9.76;75.93
16544;BME280;8384;47.996;7.786;2023-03-26T07:41:00;97691.47;;;9.86;78.04
16544;BME280;8384;47.996;7.786;2023-03-26T07:43:45;97697.25;;;9.80;78.45
16544;BME280;8384;47.996;7.786;2023-03-26T07:46:14;97699.97;;;9.80;79.29
16544;BME280;8384;47.996;7.786;2023-03-26T07:48:43;97728.09;;;9.75;80.05
16544;BME280;8384;47.996;7.786;2023-03-26T07:51:09;97736.38;;;9.49;83.13
16544;BME280;8384;47.996;7.786;2023-03-26T07:53:35;97741.41;;;9.21;86.08
16544;BME280;8384;47.996;7.786;2023-03-26T08:02:26;97759.97;;;8.36;97.71
16544;BME280;8384;47.996;7.786;2023-03-26T08:07:55;97718.03;;;8.01;97.43
16544;BME280;8384;47.996;7.786;2023-03-26T08:10:44;97743.06;;;8.14;100.00
16544;BME280;8384;47.996;7.786;2023-03-26T08:13:20;97751.78;;;8.10;100.00
16544;BME280;8384;47.996;7.786;2023-03-26T08:18:27;97744.22;;;8.33;99.33
16544;BME280;8384;47.996;7.786;2023-03-26T08:21:03;97757.81;;;8.38;98.42
16544;BME280;8384;47.996;7.786;2023-03-26T08:23:41;97748.81;;;8.33;98.53
16544;BME280;8384;47.996;7.786;2023-03-26T08:31:47;97746.66;;;8.81;94.54
16544;BME280;8384;47.996;7.786;2023-03-26T08:34:13;97743.31;;;9.15;94.68
16544;BME280;8384;47.996;7.786;2023-03-26T08:36:39;97745.94;;;9.52;91.85
16544;BME280;8384;47.996;7.786;2023-03-26T08:39:05;97749.16;;;9.64;91.98
16544;BME280;8384;47.996;7.786;2023-03-26T08:47:28;97750.97;;;10.29;86.29
16544;BME280;8384;47.996;7.786;2023-03-26T08:55:39;97756.09;;;11.05;79.74
16544;BME280;8384;47.996;7.786;2023-03-26T09:03:47;97752.88;;;11.52;76.99
16544;BME280;8384;47.996;7.786;2023-03-26T09:06:38;97751.34;;;11.84;72.82
16544;BME280;8384;47.996;7.786;2023-03-26T09:12:12;97754.00;;;12.13;71.61
16544;BME280;8384;47.996;7.786;2023-03-26T09:17:52;97776.59;;;12.24;68.39
16544;BME280;8384;47.996;7.786;2023-03-26T09:32:08;97730.69;;;12.16;61.76
16544;BME280;8384;47.996;7.786;2023-03-26T09:40:20;97772.41;;;11.89;57.78
16544;BME280;8384;47.996;7.786;2023-03-26T09:42:54;97740.94;;;11.86;57.52
16544;BME280;8384;47.996;7.786;2023-03-26T09:48:21;97713.16;;;12.50;50.76
16544;BME280;8384;47.996;7.786;2023-03-26T09:54:11;97737.13;;;13.53;49.58
16544;BME280;8384;47.996;7.786;2023-03-26T09:56:56;97756.53;;;12.81;48.17
16544;BME280;8384;47.996;7.786;2023-03-26T10:10:34;97747.56;;;12.23;48.02
16544;BME280;8384;47.996;7.786;2023-03-26T10:16:05;97751.03;;;11.91;49.37
16544;BME280;8384;47.996;7.786;2023-03-26T10:18:48;97750.38;;;11.99;49.84
16544;BME280;8384;47.996;7.786;2023-03-26T10:21:35;97763.59;;;11.92;50.59
16544;BME280;8384;47.996;7.786;2023-03-26T10:24:12;97764.28;;;12.41;49.77
16544;BME280;8384;47.996;7.786;2023-03-26T10:27:01;97756.59;;;12.24;48.78
16544;BME280;8384;47.996;7.786;2023-03-26T10:37:51;97747.28;;;13.52;44.65
16544;BME280;8384;47.996;7.786;2023-03-26T10:40:43;97723.91;;;13.41;44.12
16544;BME280;8384;47.996;7.786;2023-03-26T10:43:46;97726.72;;;13.35;44.29
16544;BME280;8384;47.996;7.786;2023-03-26T10:46:40;97743.84;;;12.99;43.37
16544;BME280;8384;47.996;7.786;2023-03-26T10:52:17;97749.72;;;12.59;45.44
16544;BME280;8384;47.996;7.786;2023-03-26T10:54:52;97738.88;;;13.01;44.46
16544;BME280;8384;47.996;7.786;2023-03-26T10:57:28;97740.91;;;12.96;45.08
16544;BME280;8384;47.996;7.786;2023-03-26T11:05:45;97729.09;;;12.81;43.99
16544;BME280;8384;47.996;7.786;2023-03-26T11:08:23;97735.50;;;13.52;43.13
16544;BME280;8384;47.996;7.786;2023-03-26T11:17:01;97734.28;;;13.44;43.08
16544;BME280;8384;47.996;7.786;2023-03-26T11:19:36;97697.13;;;13.18;41.32
16544;BME280;8384;47.996;7.786;2023-03-26T11:27:25;97717.34;;;13.09;40.72
16544;BME280;8384;47.996;7.786;2023-03-26T11:30:10;97722.63;;;12.91;38.25
16544;BME280;8384;47.996;7.786;2023-03-26T11:35:15;97713.94;;;12.70;41.16
16544;BME280;8384;47.996;7.786;2023-03-26T11:37:43;97727.31;;;12.57;42.34
16544;BME280;8384;47.996;7.786;2023-03-26T11:40:29;97731.72;;;12.20;42.28
16544;BME280;8384;47.996;7.786;2023-03-26T11:43:00;97715.72;;;11.46;43.49
16544;BME280;8384;47.996;7.786;2023-03-26T11:45:29;97722.81;;;11.47;44.85
16544;BME280;8384;47.996;7.786;2023-03-26T11:48:05;97746.13;;;11.88;45.90
16544;BME280;8384;47.996;7.786;2023-03-26T11:50:34;97752.63;;;11.73;45.17
16544;BME280;8384;47.996;7.786;2023-03-26T11:53:11;97717.59;;;11.02;45.28
16544;BME280;8384;47.996;7.786;2023-03-26T11:55:43;97748.66;;;11.60;45.68
16544;BME280;8384;47.996;7.786;2023-03-26T11:58:23;97761.16;;;11.17;47.59
16544;BME280;8384;47.996;7.786;2023-03-26T12:00:53;97738.63;;;10.72;51.17
16544;BME280;8384;47.996;7.786;2023-03-26T12:03:18;97732.50;;;10.56;53.31
16544;BME280;8384;47.996;7.786;2023-03-26T12:05:51;97745.59;;;10.88;53.56
16544;BME280;8384;47.996;7.786;2023-03-26T12:08:29;97752.28;;;10.77;53.42
16544;BME280;8384;47.996;7.786;2023-03-26T12:11:04;97719.25;;;10.33;55.51
16544;BME280;8384;47.996;7.786;2023-03-26T12:13:37;97703.34;;;10.46;55.90
16544;BME280;8384;47.996;7.786;2023-03-26T12:16:16;97727.22;;;10.64;56.13
16544;BME280;8384;47.996;7.786;2023-03-26T12:18:43;97708.09;;;10.64;55.87
16544;BME280;8384;47.996;7.786;2023-03-26T12:21:16;97714.13;;;10.91;54.87
16544;BME280;8384;47.996;7.786;2023-03-26T12:24:01;97712.97;;;10.68;55.44
16544;BME280;8384;47.996;7.786;2023-03-26T12:29:13;97689.41;;;10.77;54.16
16544;BME280;8384;47.996;7.786;2023-03-26T12:31:56;97717.00;;;10.75;53.01
16544;BME280;8384;47.996;7.786;2023-03-26T12:34:32;97669.50;;;10.42;53.26
16544;BME280;8384;47.996;7.786;2023-03-26T12:37:02;97695.44;;;10.44;54.08
16544;BME280;8384;47.996;7.786;2023-03-26T12:39:41;97687.09;;;10.60;53.60
16544;BME280;8384;47.996;7.786;2023-03-26T12:42:25;97686.09;;;10.50;54.51
16544;BME280;8384;47.996;7.786;2023-03-26T12:44:52;97675.38;;;10.59;54.31
16544;BME280;8384;47.996;7.786;2023-03-26T12:47:20;97679.63;;;10.41;56.22
16544;BME280;8384;47.996;7.786;2023-03-26T12:49:48;97679.44;;;10.62;56.14
16544;BME280;8384;47.996;7.786;2023-03-26T12:52:26;97669.44;;;10.76;55.46
16544;BME280;8384;47.996;7.786;2023-03-26T12:57:36;97674.50;;;10.64;56.44
16544;BME280;8384;47.996;7.786;2023-03-26T13:00:26;97674.16;;;10.71;55.86
16544;BME280;8384;47.996;7.786;2023-03-26T13:06:16;97663.84;;;11.35;55.06
16544;BME280;8384;47.996;7.786;2023-03-26T13:19:58;97638.16;;;11.75;54.76
16544;BME280;8384;47.996;7.786;2023-03-26T13:22:34;97635.59;;;12.03;54.30
16544;BME280;8384;47.996;7.786;2023-03-26T13:30:36;97625.47;;;11.98;54.85
16544;BME280;8384;47.996;7.786;2023-03-26T13:33:21;97624.22;;;11.90;53.17
16544;BME280;8384;47.996;7.786;2023-03-26T13:36:00;97620.25;;;11.82;53.42
16544;BME280;8384;47.996;7.786;2023-03-26T13:41:18;97594.03;;;11.95;53.08
16544;BME280;8384;47.996;7.786;2023-03-26T13:46:35;97565.94;;;11.70;52.70
16544;BME280;8384;47.996;7.786;2023-03-26T13:49:13;97580.16;;;11.34;54.25
16544;BME280;8384;47.996;7.786;2023-03-26T13:51:58;97592.69;;;10.97;55.02
16544;BME280;8384;47.996;7.786;2023-03-26T13:54:27;97678.59;;;10.91;57.75
16544;BME280;8384;47.996;7.786;2023-03-26T13:56:59;97721.03;;;7.94;76.73
16544;BME280;8384;47.996;7.786;2023-03-26T13:59:50;97737.00;;;6.64;88.15
16544;BME280;8384;47.996;7.786;2023-03-26T14:02:27;97706.78;;;6.50;92.55
16544;BME280;8384;47.996;7.786;2023-03-26T14:05:09;97744.25;;;6.53;94.05
16544;BME280;8384;47.996;7.786;2023-03-26T14:07:43;97760.03;;;6.56;96.92
16544;BME280;8384;47.996;7.786;2023-03-26T14:10:16;97778.16;;;6.50;97.98
16544;BME280;8384;47.996;7.786;2023-03-26T14:18:05;97779.97;;;6.72;94.77
16544;BME280;8384;47.996;7.786;2023-03-26T14:23:33;97759.78;;;7.00;90.88
16544;BME280;8384;47.996;7.786;2023-03-26T14:53:32;97751.53;;;9.05;81.67
16544;BME280;8384;47.996;7.786;2023-03-26T14:56:34;97744.09;;;9.92;85.27
16544;BME280;8384;47.996;7.786;2023-03-26T14:59:17;97739.56;;;9.72;79.45
16544;BME280;8384;47.996;7.786;2023-03-26T15:05:26;97734.81;;;10.33;70.15
16544;BME280;8384;47.996;7.786;2023-03-26T15:11:06;97729.94;;;10.64;71.32
16544;BME280;8384;47.996;7.786;2023-03-26T15:16:44;97744.44;;;11.24;64.19
16544;BME280;8384;47.996;7.786;2023-03-26T15:25:01;97732.31;;;10.76;66.09
16544;BME280;8384;47.996;7.786;2023-03-26T15:33:34;97698.38;;;9.08;73.56
16544;BME280;8384;47.996;7.786;2023-03-26T15:41:57;97721.28;;;9.02;74.31
16544;BME280;8384;47.996;7.786;2023-03-26T15:44:52;97665.75;;;8.66;73.00
16544;BME280;8384;47.996;7.786;2023-03-26T15:47:37;97717.50;;;8.82;73.45
16544;BME280;8384;47.996;7.786;2023-03-26T15:50:21;97730.56;;;8.95;73.75
16544;BME280;8384;47.996;7.786;2023-03-26T15:52:57;97733.59;;;8.47;72.49
16544;BME280;8384;47.996;7.786;2023-03-26T15:55:50;97744.25;;;8.54;74.06
16544;BME280;8384;47.996;7.786;2023-03-26T15:58:29;97727.06;;;8.59;73.81
16544;BME280;8384;47.996;7.786;2023-03-26T16:01:22;97726.53;;;8.62;73.09
16544;BME280;8384;47.996;7.786;2023-03-26T16:04:02;97725.16;;;8.69;70.05
16544;BME280;8384;47.996;7.786;2023-03-26T16:06:37;97739.31;;;8.66;70.60
16544;BME280;8384;47.996;7.786;2023-03-26T16:11:58;97752.09;;;8.35;70.34
16544;BME280;8384;47.996;7.786;2023-03-26T16:14:46;97761.63;;;8.43;70.36
16544;BME280;8384;47.996;7.786;2023-03-26T16:17:16;97762.16;;;8.34;69.61
16544;BME280;8384;47.996;7.786;2023-03-26T16:20:23;97794.31;;;8.32;70.16
16544;BME280;8384;47.996;7.786;2023-03-26T16:22:58;97777.66;;;8.23;70.04
16544;BME280;8384;47.996;7.786;2023-03-26T16:25:31;97776.03;;;8.22;69.71
16544;BME280;8384;47.996;7.786;2023-03-26T16:30:35;97776.88;;;8.28;68.23
16544;BME280;8384;47.996;7.786;2023-03-26T16:33:11;97781.78;;;8.31;67.59
16544;BME280;8384;47.996;7.786;2023-03-26T16:36:02;97775.78;;;8.24;68.92
16544;BME280;8384;47.996;7.786;2023-03-26T16:44:37;97772.78;;;8.20;69.79
16544;BME280;8384;47.996;7.786;2023-03-26T16:47:27;97745.53;;;8.15;68.27
16544;BME280;8384;47.996;7.786;2023-03-26T16:50:26;97758.88;;;8.06;69.45
16544;BME280;8384;47.996;7.786;2023-03-26T16:53:08;97749.03;;;7.95;70.04
16544;BME280;8384;47.996;7.786;2023-03-26T16:58:55;97765.34;;;7.79;72.40
16544;BME280;8384;47.996;7.786;2023-03-26T17:01:46;97759.38;;;7.98;74.60
16544;BME280;8384;47.996;7.786;2023-03-26T17:04:19;97777.22;;;7.63;76.62
16544;BME280;8384;47.996;7.786;2023-03-26T17:06:55;97781.22;;;7.40;79.28
16544;BME280;8384;47.996;7.786;2023-03-26T17:12:17;97763.81;;;6.93;86.75
16544;BME280;8384;47.996;7.786;2023-03-26T17:31:29;97786.25;;;7.15;87.13
16544;BME280;8384;47.996;7.786;2023-03-26T17:37:09;97785.22;;;7.32;84.26
16544;BME280;8384;47.996;7.786;2023-03-26T17:42:16;97790.13;;;7.25;84.57
16544;BME280;8384;47.996;7.786;2023-03-26T17:44:48;97787.13;;;7.26;85.77
16544;BME280;8384;47.996;7.786;2023-03-26T17:47:37;97795.59;;;7.35;85.90
16544;BME280;8384;47.996;7.786;2023-03-26T17:52:50;97796.41;;;7.35;84.28
16544;BME280;8384;47.996;7.786;2023-03-26T17:55:26;97802.22;;;7.07;84.61
16544;BME280;8384;47.996;7.786;2023-03-26T17:58:00;97798.53;;;7.28;83.84
16544;BME280;8384;47.996;7.786;2023-03-26T18:00:33;97802.13;;;7.39;83.71
16544;BME280;8384;47.996;7.786;2023-03-26T18:03:01;97800.31;;;7.07;85.48
16544;BME280;8384;47.996;7.786;2023-03-26T18:05:31;97783.22;;;7.07;84.02
16544;BME280;8384;47.996;7.786;2023-03-26T18:08:27;97793.94;;;7.34;83.21